Mineral City, OH (44656)

2:11 AM EST on February 13, 2016 (GMT -0500)
Fox Chase | | Change Station
CLOSE
Current Station
Personal Weather Station
Location: Dover, OH
Elevation: 994 ft
Nearby Weather Stations
Active Advisory: Wind Chill Advisory Active Notice: Public Information Statement

Elev 994 ft 40.54 °N, 81.41 °W | Updated 2 minutes ago

Mostly Cloudy
Mostly Cloudy
12.0 °F
Feels Like 6 °F
N
3.2
Wind Variable Wind from South

Today
High -- | Low -- °F
--% Chance of Precip.
Yesterday
High -- | Low -- °F
Precip. -- in
Pressure 30.19 in
Visibility 2.5 miles
Clouds Overcast 2200 ft
Windchill 6 °F
Dew Point 7 °F
Humidity 79%
Rainfall 0.00 in
Snow Depth Not available.
7:22 AM 5:57 PM
Waxing Crescent, 28% visible
SPECI KPHD 130703Z AUTO 31007G16KT 2 1/2SM -SN OVC022 M10/M13 A3019 RMK AO2 P0000 T11001133
Pressure 30.19 in
Visibility 2.5 miles
Clouds Overcast 2200 ft
Windchill 6 °F
Dew Point 7 °F
Humidity 79%
Rainfall 0.00 in
Snow Depth Not available.
7:22 AM 5:57 PM
Waxing Crescent, 28% visible
SPECI KPHD 130703Z AUTO 31007G16KT 2 1/2SM -SN OVC022 M10/M13 A3019 RMK AO2 P0000 T11001133

10-Day Weather Forecast

Almanac

Astronomy

Feb. 13, 2016 Rise Set
Actual Time
Civil Twilight
Nautical Twilight
Astronomical Twilight
Moon
Length of Visible Light
Length of Day
Tomorrow will be .
, % of the Moon is Illuminated

Today's Extremes

State Highs State Lows

Community

WunderPhotos

Upload Photos

1,892,526 photos uploaded!

WunderBlog® & News

Nearby

Air Quality

  Air Quality AQ Index Pollutant
Not available.

Snow Depth

Station Depth Elevation

Earthquake Activity

City Distance Mag. Time & Date
Minimum magnitude displayed is 2.5.

Coastal Water Temperatures

Place Temperature

Stations

Nearby Weather Stations

Station Location Temp. Windchill Dew Point Humidity Wind Precip. Elev Updated Type
                   

Watches & Warnings

Wind Chill Advisory
Issued: 1:08 AM EST Feb. 13, 2016 – National Weather Service

... Wind Chill Advisory remains in effect until 11 am EST this
morning...

* wind chill... as low as 14 below due to temperatures 3 to 14
above... and winds northwest 10 to 15 mph with gusts up to 25
mph.

* Impacts... frost bite and hypothermia are possible if
precautions are not taken.

Precautionary/preparedness actions...

A Wind Chill Advisory means that very cold air and strong winds
will combine to generate low wind chills. This will result in
frost bite and lead to hypothermia if precautions are not taken.
If you must venture outdoors... make sure you wear a hat and
gloves.